»·PEaware :: N69PL KSNA-KSNA

N69PL :: KSNA-KSNA

FLIGHT INFORMATION

Flight Status: Arrived
Operator: Privately registered:
United States
More flights under this callsign
Pilot: Julian C. (16982)
Aircraft: BEECH AIRCRAFT BONANZA
(BE36)
More flights by this aircraft type
Origin: KSNA John Wayne-Orange Co
United States
Destination: KSNA John Wayne-Orange Co
United States
More flights between these airports :: More routes between these airports
Route: +SLI
File this flight plan on PilotEdge
Remarks: Sample flight plan
Altitude:
(Current/Filed)
3,000ft
Speed:
(Current/Filed)
115kts
Departed: 02-Dec-18 02:59 PM
Arrived: 02-Dec-18 03:25 PM
Distance/Time
Traveled:
0nm/0:26
Distance/Time
To Go:
Arrived

Flight Plot

Page will automatically refresh every two minutes.


Map Options




Map Legend


Flown Route
Filed Route
Departure Airport
Arrival Airport
Navaid (VOR, NDB)
Fix

Horizontal Profiles

Position Reports

Time Latitude Longitude Heading Altitude Ground
Speed
02-Dec-18 13:53 33.682371 -117.860271 118 59ft 0kts
02-Dec-18 13:54 33.682371 -117.860271 118 59ft 0kts
02-Dec-18 13:55 33.682371 -117.860271 118 59ft 0kts
02-Dec-18 13:56 33.682371 -117.860271 118 59ft 0kts
02-Dec-18 13:57 33.682347 -117.860232 139 60ft 5kts
02-Dec-18 13:58 33.682432 -117.860724 205 60ft 3kts
02-Dec-18 13:59 33.682415 -117.860763 262 60ft 0kts
02-Dec-18 14:00 33.682415 -117.860763 262 60ft 0kts
02-Dec-18 14:01 33.682415 -117.860763 262 60ft 0kts
02-Dec-18 14:02 33.682415 -117.860763 262 60ft 0kts
02-Dec-18 14:03 33.682415 -117.860763 262 60ft 0kts
02-Dec-18 14:04 33.682415 -117.860763 262 60ft 0kts
02-Dec-18 14:05 33.682415 -117.860763 262 60ft 0kts
02-Dec-18 14:06 33.682415 -117.860763 262 60ft 0kts
02-Dec-18 14:07 33.682415 -117.860763 262 60ft 0kts
02-Dec-18 14:08 33.682415 -117.860763 262 60ft 0kts
02-Dec-18 14:09 33.682415 -117.860763 262 60ft 0kts
02-Dec-18 14:10 33.682415 -117.860763 262 60ft 0kts
02-Dec-18 14:11 33.682415 -117.860763 262 60ft 0kts
02-Dec-18 14:12 33.682415 -117.860763 262 60ft 0kts
02-Dec-18 14:13 33.682415 -117.860763 262 60ft 0kts
02-Dec-18 14:14 33.682415 -117.860763 262 60ft 0kts
02-Dec-18 14:15 33.682415 -117.860763 262 60ft 0kts
02-Dec-18 14:16 33.682415 -117.860763 262 60ft 0kts
02-Dec-18 14:17 33.682415 -117.860763 262 60ft 0kts
02-Dec-18 14:18 33.682415 -117.860763 262 60ft 0kts
02-Dec-18 14:19 33.682415 -117.860763 262 60ft 0kts
02-Dec-18 14:20 33.682415 -117.860763 262 60ft 0kts
02-Dec-18 14:21 33.682415 -117.860763 262 60ft 0kts
02-Dec-18 14:22 33.682415 -117.860763 262 60ft 0kts
02-Dec-18 14:23 33.682415 -117.860763 262 60ft 0kts
02-Dec-18 14:24 33.682415 -117.860763 262 60ft 0kts
02-Dec-18 14:25 33.682415 -117.860763 262 60ft 0kts
02-Dec-18 14:26 33.682415 -117.860763 262 60ft 0kts
02-Dec-18 14:27 33.682415 -117.860763 262 60ft 0kts
02-Dec-18 14:28 33.682415 -117.860763 262 60ft 0kts
02-Dec-18 14:29 33.682415 -117.860763 262 60ft 0kts
02-Dec-18 14:30 33.682415 -117.860763 262 60ft 0kts
02-Dec-18 14:31 33.682415 -117.860763 262 60ft 0kts
02-Dec-18 14:32 33.682415 -117.860763 262 60ft 0kts
02-Dec-18 14:33 33.682415 -117.860763 262 60ft 0kts
02-Dec-18 14:34 33.681835 -117.861314 219 60ft 15kts
02-Dec-18 14:35 33.679788 -117.863240 303 60ft 2kts
02-Dec-18 14:36 33.679836 -117.863346 297 60ft 0kts
02-Dec-18 14:37 33.679861 -117.863403 296 60ft 0kts
02-Dec-18 14:38 33.679861 -117.863404 296 60ft 0kts
02-Dec-18 14:39 33.679866 -117.863416 295 60ft 0kts
02-Dec-18 14:40 33.679879 -117.863454 291 60ft 0kts
02-Dec-18 14:41 33.679879 -117.863454 291 60ft 0kts
02-Dec-18 14:42 33.680648 -117.865509 251 60ft 6kts
02-Dec-18 14:43 33.673238 -117.868953 73 97ft 34kts
02-Dec-18 14:44 33.682370 -117.860268 117 60ft 0kts
02-Dec-18 14:45 33.682370 -117.860268 117 60ft 0kts
02-Dec-18 14:46 33.682370 -117.860268 117 60ft 0kts
02-Dec-18 14:47 33.682370 -117.860268 117 60ft 0kts
02-Dec-18 14:48 33.682370 -117.860268 117 60ft 0kts
02-Dec-18 14:49 33.682370 -117.860268 117 60ft 0kts
02-Dec-18 14:50 33.682370 -117.860268 117 60ft 0kts
02-Dec-18 14:51 33.682370 -117.860268 117 60ft 0kts
02-Dec-18 14:52 33.682370 -117.860268 117 60ft 0kts
02-Dec-18 14:53 33.682370 -117.860268 117 60ft 0kts
02-Dec-18 14:54 33.682370 -117.860268 117 60ft 0kts
02-Dec-18 14:55 33.682370 -117.860268 117 60ft 0kts
02-Dec-18 14:56 33.682370 -117.860268 117 60ft 0kts
02-Dec-18 14:57 33.679794 -117.862907 227 60ft 3kts
02-Dec-18 14:58 33.679942 -117.863587 292 60ft 0kts
02-Dec-18 14:59 33.679970 -117.863672 292 60ft 0kts
02-Dec-18 15:00 33.679970 -117.863673 292 60ft 0kts
02-Dec-18 15:01 33.680660 -117.865501 236 60ft 11kts
02-Dec-18 15:02 33.663471 -117.877402 223 636ft 115kts
02-Dec-18 15:03 33.642622 -117.912168 230 1792ft 135kts
02-Dec-18 15:04 33.617921 -117.949165 226 2765ft 138kts
02-Dec-18 15:05 33.591386 -117.986806 229 3006ft 152kts
02-Dec-18 15:06 33.564707 -118.025738 229 3005ft 151kts
02-Dec-18 15:07 33.557701 -118.071266 304 2989ft 143kts
02-Dec-18 15:08 33.591005 -118.074285 24 2997ft 129kts
02-Dec-18 15:09 33.622068 -118.056056 25 2992ft 124kts
02-Dec-18 15:10 33.653607 -118.037520 25 2993ft 128kts
02-Dec-18 15:11 33.684418 -118.017108 31 2991ft 129kts
02-Dec-18 15:12 33.713792 -117.995265 30 2988ft 129kts
02-Dec-18 15:13 33.742785 -117.973367 30 2988ft 129kts
02-Dec-18 15:14 33.772026 -117.952461 29 2983ft 130kts
02-Dec-18 15:15 33.801718 -117.931279 29 2983ft 130kts
02-Dec-18 15:16 33.831057 -117.910341 29 2979ft 130kts
02-Dec-18 15:17 33.860617 -117.889235 29 2978ft 130kts
02-Dec-18 15:18 33.870337 -117.852392 89 2991ft 129kts
02-Dec-18 15:19 33.869709 -117.811148 90 2990ft 125kts
02-Dec-18 15:20 33.868663 -117.770308 102 2984ft 126kts
02-Dec-18 15:21 33.840826 -117.759474 195 3015ft 124kts
02-Dec-18 15:22 33.810082 -117.775758 233 2963ft 128kts
02-Dec-18 15:23 33.782406 -117.800070 219 2640ft 150kts
02-Dec-18 15:24 33.758649 -117.818528 202 1675ft 94kts
02-Dec-18 15:25 33.735248 -117.830935 209 1292ft 95kts
02-Dec-18 15:26 33.711224 -117.846451 213 727ft 99kts
02-Dec-18 15:27 33.687770 -117.861018 210 250ft 96kts
02-Dec-18 15:28 33.675196 -117.868769 159 60ft 11kts
02-Dec-18 15:29 33.673727 -117.867198 109 60ft 9kts
02-Dec-18 15:30 33.677236 -117.864309 57 60ft 15kts
02-Dec-18 15:31 33.677448 -117.863900 55 60ft 0kts
02-Dec-18 15:32 33.677461 -117.863875 55 60ft 0kts
02-Dec-18 15:33 33.677461 -117.863875 55 60ft 0kts
02-Dec-18 15:34 33.677463 -117.863871 51 60ft 0kts
02-Dec-18 15:35 33.677499 -117.863814 50 60ft 0kts
02-Dec-18 15:36 33.677499 -117.863814 49 60ft 0kts
02-Dec-18 15:37 33.677499 -117.863814 49 60ft 0kts
02-Dec-18 15:38 33.677499 -117.863814 49 60ft 0kts
02-Dec-18 15:39 33.677500 -117.863812 50 60ft 0kts

Navigation Log

Ident Type
Flight plan parsing failed, navigation log unavailable